Kezdőlap
METAR-TAF:

METAR-TAF

Repülőterek :

Kunming, Kína

földrajzi szélesség: 25-01N, földrajzi hosszúság: 102-41E, magasság: 1892 m

Jelenlegi meteorológiai megfigyelések

A jelentés 12 perccel ezelõtt készült, 14:00 UTC
Dél-délnyugati szél 8 kt
Hőmérséklet 14°C
Páratartalom 77%
Légköri nyomás 1025 hPa
Látótávolság 10 km, vagy több
felhőtlen 1500 m magasságban, és nincs gomolyfelhõ

METAR: ZPPP 211400Z 20004MPS CAVOK 14/10 Q1025 NOSIG

Idő: 22:12 (14:12 UTC)

Előrejelzés

A jelentés 7 órával és 7 perccel ezelõtt készült, 07:05 UTC
Az előrejelzés 21-én 12 óra UTC és 22-én 12 óra UTC között érvényes
Délnyugati szél 14 kt
Látótávolság 10 km, vagy több
Kevés felhő 2600 lábon

TAF: ZPPP 210705Z 2112/2212 23007MPS 9999 FEW026 TX22/2208Z TN10/2123Z

Meteorológiai megfigyelések és előrejelzések több, mint 4000 repülőtéren (METAR és TAF jelentéseket).

A térképen piros és sárga pontok jelzik az elérhető meteorológiai állomásokat.

Mozgassa az egeret a pont fölött, hogy megjelenjen az állomás neve.

Azután kattintson az időjárási megfigyelések és előrejelzések megtekintéséhez.

A térkép megváltoztatása: kattintson a fekete keresztel jelölt zöld gombra ráközelítéshez, a vonallal jelölt zöld gombra távolításhoz, vagy a zöld nyilakra a szomszédos térképek eléréséhez.


METAR-TAF: